This is the latest recevied weather packets stored in our database for station/object SQ6PCH-10. If no packets are shown the sender has not sent any weather packets the latest 10 day(s).
| Time | Temp. | Humidity | Pressure | Rain* | Wind** | Luminosity | Snow |
|---|---|---|---|---|---|---|---|
| 1777555024 | 22.78° C | 17% | 1014.7 hPa | - | - | - | - |
| 1777554424 | 23.33° C | 16% | 1014.8 hPa | - | - | - | - |
| 1777553824 | 22.78° C | 16% | 1014.7 hPa | - | - | - | - |
| 1777553224 | 18.33° C | 22% | 1014.9 hPa | - | - | - | - |
| 1777552623 | 18.89° C | 21% | 1015 hPa | - | - | - | - |
| 1777552023 | 22.78° C | 17% | 1015 hPa | - | - | - | - |
| 1777551423 | 22.22° C | 16% | 1015.1 hPa | - | - | - | - |
| 1777550823 | 20° C | 19% | 1015.3 hPa | - | - | - | - |
| 1777550223 | 21.67° C | 18% | 1015.4 hPa | - | - | - | - |
| 1777549622 | 18.33° C | 20% | 1015.4 hPa | - | - | - | - |
| 1777549022 | 22.22° C | 17% | 1015.5 hPa | - | - | - | - |
| 1777548422 | 18.33° C | 20% | 1015.7 hPa | - | - | - | - |
| 1777547822 | 16.11° C | 23% | 1015.7 hPa | - | - | - | - |
| 1777547222 | 18.33° C | 20% | 1015.8 hPa | - | - | - | - |
| 1777546622 | 21.11° C | 16% | 1015.8 hPa | - | - | - | - |
| 1777546022 | 20° C | 18% | 1015.8 hPa | - | - | - | - |
| 1777545421 | 19.44° C | 18% | 1015.9 hPa | - | - | - | - |
| 1777544821 | 20.56° C | 17% | 1015.9 hPa | - | - | - | - |
| 1777544221 | 20.56° C | 17% | 1016.1 hPa | - | - | - | - |
| 1777543621 | 20° C | 19% | 1016.2 hPa | - | - | - | - |
| 1777543020 | 20° C | 19% | 1016.2 hPa | - | - | - | - |
| 1777542420 | 19.44° C | 18% | 1016.3 hPa | - | - | - | - |
| 1777541820 | 18.89° C | 19% | 1016.4 hPa | - | - | - | - |
| 1777541220 | 17.78° C | 20% | 1016.6 hPa | - | - | - | - |
| 1777540619 | 17.78° C | 20% | 1016.6 hPa | - | - | - | - |
* Rain since midnight (hover to see other rain measurements)
** Current wind speed in m/s (hover to see current wind gust speed)